Webcam Flughafen St.Gallen-Altenrhein

Live-Bilder und Zeitraffer LSZR / ACH.

 

Live aus Altenrhein
LIVE
LSZR 310650Z AUTO VRB02KT CAVOK 12/07 Q1018
Zeitraffer heute
2020-05-31 00:14:51
LSZR 302150Z AUTO VRB01KT CAVOK 11/06 Q1019